createdAt,value
2018-06-07T00:00:10.921Z,12.69
2018-06-07T00:02:39.753Z,12.64
2018-06-07T00:05:09.684Z,12.61
2018-06-07T00:08:42.112Z,12.56
2018-06-07T00:11:11.127Z,12.45
2018-06-07T00:13:39.980Z,12.41
2018-06-07T00:16:09.247Z,12.32
2018-06-07T00:18:38.213Z,12.27
2018-06-07T00:21:09.107Z,12.25
2018-06-07T00:23:38.650Z,12.24
2018-06-07T00:26:08.602Z,12.22
2018-06-07T00:28:38.157Z,12.18
2018-06-07T00:31:07.325Z,12.16
2018-06-07T00:33:36.225Z,12.12
2018-06-07T00:36:05.159Z,12.08
2018-06-07T00:38:34.183Z,12.05
2018-06-07T00:41:03.017Z,11.97
2018-06-07T00:43:31.881Z,11.93
2018-06-07T00:46:00.733Z,11.91
2018-06-07T00:48:30.457Z,11.87
2018-06-07T00:50:59.245Z,11.83
2018-06-07T00:53:28.641Z,11.82
2018-06-07T00:55:58.213Z,11.80
2018-06-07T00:58:27.047Z,11.77
2018-06-07T01:00:55.874Z,11.75
2018-06-07T01:03:24.808Z,11.69
2018-06-07T01:05:54.539Z,11.64
2018-06-07T01:08:24.445Z,11.58
2018-06-07T01:10:53.259Z,11.54
2018-06-07T01:13:23.311Z,11.52
2018-06-07T01:15:52.790Z,11.48
2018-06-07T01:18:21.630Z,11.45
2018-06-07T01:20:51.114Z,11.44
2018-06-07T01:23:20.545Z,11.45
2018-06-07T01:25:49.419Z,11.46
2018-06-07T01:28:19.599Z,11.47
2018-06-07T01:30:55.172Z,11.50
2018-06-07T01:33:52.091Z,11.51
2018-06-07T01:36:20.989Z,11.56
2018-06-07T01:39:23.102Z,11.57
2018-06-07T01:41:51.927Z,11.60
2018-06-07T01:44:21.037Z,11.64
2018-06-07T01:46:50.527Z,11.67
2018-06-07T01:49:19.967Z,11.69
2018-06-07T01:51:49.466Z,11.75
2018-06-07T01:54:19.643Z,11.77
2018-06-07T01:56:49.508Z,11.85
2018-06-07T01:59:18.991Z,11.89
2018-06-07T02:01:48.357Z,11.93
2018-06-07T02:04:17.983Z,11.98
2018-06-07T02:06:47.939Z,12.07
2018-06-07T02:09:18.001Z,12.13
2018-06-07T02:11:47.318Z,12.22
2018-06-07T02:14:17.179Z,12.31
2018-06-07T02:16:46.839Z,12.36
2018-06-07T02:19:17.120Z,12.44
2018-06-07T02:21:46.561Z,12.52
2018-06-07T02:24:16.272Z,12.60
2018-06-07T02:26:46.864Z,12.68
2018-06-07T02:29:15.913Z,12.77
2018-06-07T02:31:44.750Z,12.88
2018-06-07T02:34:13.658Z,13.00
2018-06-07T02:36:42.551Z,13.14
2018-06-07T02:39:12.035Z,13.28
2018-06-07T02:41:41.026Z,13.41
2018-06-07T02:44:11.195Z,13.55
2018-06-07T02:46:40.142Z,13.70
2018-06-07T02:49:09.847Z,13.82
2018-06-07T02:51:38.686Z,14.08
2018-06-07T02:54:07.934Z,14.17
2018-06-07T02:56:37.701Z,14.25
2018-06-07T02:59:06.792Z,14.34
2018-06-07T03:01:35.987Z,14.41
2018-06-07T03:04:05.267Z,14.44
2018-06-07T03:06:35.005Z,14.48
2018-06-07T03:09:06.603Z,14.49
2018-06-07T03:11:35.572Z,14.52
2018-06-07T03:14:05.341Z,14.57
2018-06-07T03:16:35.020Z,14.60
2018-06-07T03:19:03.853Z,14.64
2018-06-07T03:21:33.291Z,14.69
2018-06-07T03:24:02.745Z,14.75
2018-06-07T03:26:33.700Z,14.82
2018-06-07T03:29:02.642Z,14.90
2018-06-07T03:31:31.595Z,14.97
2018-06-07T03:34:00.666Z,15.05
2018-06-07T03:36:29.629Z,15.08
2018-06-07T03:38:58.814Z,15.10
2018-06-07T03:41:31.971Z,15.21
2018-06-07T03:44:00.991Z,15.40
2018-06-07T03:46:29.847Z,15.56
2018-06-07T03:48:59.563Z,15.69
2018-06-07T03:51:28.811Z,15.77
2018-06-07T03:53:57.849Z,15.83
2018-06-07T03:56:27.569Z,15.87
2018-06-07T03:58:56.495Z,15.90
2018-06-07T04:01:26.826Z,15.94
2018-06-07T04:03:55.872Z,15.95
2018-06-07T04:06:25.743Z,16.01
2018-06-07T04:08:55.186Z,16.10
2018-06-07T04:11:24.109Z,16.18
2018-06-07T04:13:53.947Z,16.26
2018-06-07T04:16:23.314Z,16.32
2018-06-07T04:18:52.239Z,16.38
2018-06-07T04:21:21.658Z,16.45
2018-06-07T04:23:51.179Z,16.54
2018-06-07T04:26:20.980Z,16.64
2018-06-07T04:28:50.021Z,16.70
2018-06-07T04:31:19.681Z,16.74
2018-06-07T04:33:49.367Z,16.84
2018-06-07T04:36:18.618Z,16.93
2018-06-07T04:38:48.643Z,17.02
2018-06-07T04:41:18.774Z,17.08
2018-06-07T04:43:48.866Z,17.20
2018-06-07T04:46:18.326Z,17.31
2018-06-07T04:48:48.482Z,17.42
2018-06-07T04:51:18.060Z,17.49
2018-06-07T04:53:47.377Z,17.56
2018-06-07T04:56:17.671Z,17.62
2018-06-07T04:58:46.876Z,17.66
2018-06-07T05:01:16.391Z,17.63
2018-06-07T05:03:45.944Z,17.59
2018-06-07T05:06:15.967Z,17.55
2018-06-07T05:08:46.534Z,17.55
2018-06-07T05:11:16.567Z,17.70
2018-06-07T05:13:46.548Z,17.86
2018-06-07T05:16:16.437Z,17.96
2018-06-07T05:18:45.274Z,18.09
2018-06-07T05:21:15.079Z,18.19
2018-06-07T05:23:44.710Z,18.35
2018-06-07T05:26:14.470Z,18.50
2018-06-07T05:28:43.286Z,18.64
2018-06-07T05:31:12.498Z,18.80
2018-06-07T05:33:41.363Z,18.99
2018-06-07T05:36:10.220Z,19.15
2018-06-07T05:38:40.175Z,19.31
2018-06-07T05:41:09.168Z,19.50
2018-06-07T05:43:38.008Z,19.63
2018-06-07T05:46:06.909Z,19.77
2018-06-07T05:48:36.530Z,19.93
2018-06-07T05:51:05.758Z,20.10
2018-06-07T05:53:34.548Z,20.17
2018-06-07T05:56:04.038Z,20.12
2018-06-07T05:58:32.872Z,20.05
2018-06-07T06:01:01.734Z,20.13
2018-06-07T06:03:30.777Z,20.21
2018-06-07T06:06:00.242Z,20.28
2018-06-07T06:08:30.104Z,20.37
2018-06-07T06:10:58.879Z,20.47
2018-06-07T06:13:28.483Z,20.57
2018-06-07T06:15:57.952Z,20.72
2018-06-07T06:18:26.792Z,20.82
2018-06-07T06:20:56.261Z,20.89
2018-06-07T06:23:25.742Z,20.96
2018-06-07T06:25:54.745Z,21.06
2018-06-07T06:28:24.366Z,21.19
2018-06-07T06:30:53.161Z,21.31
2018-06-07T06:33:21.992Z,21.44
2018-06-07T06:35:51.649Z,21.46
2018-06-07T06:38:37.896Z,21.59
2018-06-07T06:41:06.968Z,21.75
2018-06-07T06:43:36.108Z,21.93
2018-06-07T06:46:05.469Z,22.04
2018-06-07T06:48:35.184Z,22.14
2018-06-07T06:51:04.194Z,22.22
2018-06-07T06:53:32.991Z,22.27
2018-06-07T06:56:02.494Z,22.32
2018-06-07T06:58:31.325Z,22.44
2018-06-07T07:01:00.138Z,22.53
2018-06-07T07:03:29.051Z,22.55
2018-06-07T07:05:58.789Z,22.56
2018-06-07T07:08:28.638Z,22.68
2018-06-07T07:10:57.467Z,22.63
2018-06-07T07:13:26.977Z,22.66
2018-06-07T07:15:56.529Z,22.73
2018-06-07T07:18:25.347Z,22.88
2018-06-07T07:20:54.655Z,23.04
2018-06-07T07:23:24.161Z,23.11
2018-06-07T07:25:52.942Z,23.20
2018-06-07T07:28:22.220Z,23.30
2018-06-07T07:30:51.006Z,23.37
2018-06-07T07:33:20.542Z,23.44
2018-06-07T07:35:49.491Z,23.52
2018-06-07T07:38:19.230Z,23.57
2018-06-07T07:40:48.540Z,23.65
2018-06-07T07:43:17.815Z,23.63
2018-06-07T07:45:47.699Z,23.63
2018-06-07T07:48:17.831Z,23.69
2018-06-07T07:50:46.695Z,23.71
2018-06-07T07:53:15.690Z,23.79
2018-06-07T07:55:45.632Z,23.89
2018-06-07T07:58:14.479Z,23.94
2018-06-07T08:00:43.296Z,23.98
2018-06-07T08:03:12.135Z,24.05
2018-06-07T08:05:41.867Z,24.14
2018-06-07T08:08:11.349Z,24.15
2018-06-07T08:10:40.856Z,24.16
2018-06-07T08:13:10.633Z,24.26
2018-06-07T08:15:40.310Z,24.23
2018-06-07T08:18:09.741Z,24.33
2018-06-07T08:20:39.371Z,24.49
2018-06-07T08:23:09.839Z,24.47
2018-06-07T08:25:38.631Z,24.50
2018-06-07T08:28:09.959Z,24.62
2018-06-07T08:30:39.412Z,24.68
2018-06-07T08:33:08.338Z,24.73
2018-06-07T08:35:37.352Z,24.86
2018-06-07T08:38:06.766Z,25.02
2018-06-07T08:40:35.582Z,25.01
2018-06-07T08:43:04.481Z,25.02
2018-06-07T08:45:33.537Z,25.12
2018-06-07T08:48:03.412Z,25.19
2018-06-07T08:50:32.276Z,25.25
2018-06-07T08:53:01.083Z,25.26
2018-06-07T08:55:30.705Z,25.38
2018-06-07T08:57:59.619Z,25.40
2018-06-07T09:00:28.571Z,25.48
2018-06-07T09:02:57.453Z,25.54
2018-06-07T09:05:27.904Z,25.53
2018-06-07T09:07:57.386Z,25.61
2018-06-07T09:10:26.884Z,25.71
2018-06-07T09:12:55.682Z,25.75
2018-06-07T09:15:25.273Z,25.83
2018-06-07T09:17:54.084Z,25.75
2018-06-07T09:20:23.658Z,25.78
2018-06-07T09:22:53.108Z,25.78
2018-06-07T09:25:22.045Z,25.77
2018-06-07T09:27:51.835Z,25.85
2018-06-07T09:30:20.645Z,25.94
2018-06-07T09:32:49.508Z,26.02
2018-06-07T09:35:18.780Z,26.03
2018-06-07T09:37:48.011Z,25.89
2018-06-07T09:40:48.671Z,25.90
2018-06-07T09:43:20.169Z,25.93
2018-06-07T09:45:49.359Z,25.90
2018-06-07T09:48:19.494Z,25.90
2018-06-07T09:50:48.903Z,25.90
2018-06-07T09:53:18.147Z,25.86
2018-06-07T09:55:48.517Z,25.80
2018-06-07T09:58:17.858Z,25.81
2018-06-07T10:00:47.248Z,25.80
2018-06-07T10:03:16.749Z,25.77
2018-06-07T10:05:47.023Z,25.83
2018-06-07T10:08:16.937Z,25.88
2018-06-07T10:10:46.798Z,25.87
2018-06-07T10:13:16.846Z,25.78
2018-06-07T10:15:47.017Z,25.74
2018-06-07T10:18:16.270Z,25.65
2018-06-07T10:20:46.646Z,25.61
2018-06-07T10:23:16.427Z,25.70
2018-06-07T10:25:46.308Z,25.73
2018-06-07T10:28:16.218Z,25.72
2018-06-07T10:30:45.024Z,25.69
2018-06-07T10:33:13.872Z,25.81
2018-06-07T10:35:42.792Z,25.98
2018-06-07T10:38:11.875Z,26.09
2018-06-07T10:40:41.009Z,26.12
2018-06-07T10:43:09.832Z,26.22
2018-06-07T10:45:38.658Z,26.32
2018-06-07T10:48:08.337Z,26.32
2018-06-07T10:50:37.374Z,26.36
2018-06-07T10:53:06.428Z,26.36
2018-06-07T10:55:36.595Z,26.44
2018-06-07T10:58:05.427Z,26.47
2018-06-07T11:00:34.481Z,26.49
2018-06-07T11:03:03.473Z,26.65
2018-06-07T11:05:32.920Z,26.68
2018-06-07T11:08:02.438Z,26.68
2018-06-07T11:10:31.955Z,26.80
2018-06-07T11:13:00.769Z,26.92
2018-06-07T11:15:30.533Z,26.91
2018-06-07T11:17:59.382Z,27.05
2018-06-07T11:20:29.142Z,27.06
2018-06-07T11:22:59.155Z,27.08
2018-06-07T11:25:27.936Z,27.08
2018-06-07T11:27:57.455Z,27.10
2018-06-07T11:30:26.235Z,27.13
2018-06-07T11:32:55.130Z,27.17
2018-06-07T11:35:24.154Z,27.16
2018-06-07T11:37:54.121Z,27.12
2018-06-07T11:40:23.116Z,27.08
2018-06-07T11:42:52.172Z,27.01
2018-06-07T11:45:21.454Z,26.97
2018-06-07T11:47:51.170Z,26.93
2018-06-07T11:50:19.994Z,27.03
2018-06-07T11:53:53.479Z,27.10
2018-06-07T11:56:23.258Z,27.15
2018-06-07T11:58:52.171Z,27.18
2018-06-07T12:01:21.048Z,27.19
2018-06-07T12:03:50.821Z,27.26
2018-06-07T12:06:21.575Z,27.19
2018-06-07T12:08:52.610Z,27.09
2018-06-07T12:11:21.437Z,27.13
2018-06-07T12:13:51.775Z,27.18
2018-06-07T12:17:52.259Z,27.37
2018-06-07T12:20:33.083Z,27.56
2018-06-07T12:23:14.247Z,27.61
2018-06-07T12:25:49.454Z,27.58
2018-06-07T12:31:18.196Z,27.35
2018-06-07T12:35:54.499Z,27.42
2018-06-07T12:38:23.396Z,27.39
2018-06-07T12:40:52.662Z,27.37
2018-06-07T12:43:21.676Z,27.36
2018-06-07T12:45:50.531Z,27.33
2018-06-07T12:48:20.219Z,27.44
2018-06-07T12:50:49.251Z,27.50
2018-06-07T12:53:18.469Z,27.46
2018-06-07T12:55:48.535Z,27.46
2018-06-07T12:58:17.868Z,27.47
2018-06-07T13:00:47.114Z,27.42
2018-06-07T13:03:16.629Z,27.46
2018-06-07T13:05:46.656Z,27.41
2018-06-07T13:08:16.306Z,27.40
2018-06-07T13:10:46.733Z,27.38
2018-06-07T13:13:16.856Z,27.36
2018-06-07T13:15:46.820Z,27.41
2018-06-07T13:18:16.653Z,27.31
2018-06-07T13:20:46.274Z,27.28
2018-06-07T13:23:16.378Z,27.30
2018-06-07T13:25:46.370Z,27.27
2018-06-07T13:28:15.156Z,27.33
2018-06-07T13:30:44.082Z,27.40
2018-06-07T13:33:12.938Z,27.38
2018-06-07T13:35:42.802Z,27.32
2018-06-07T13:38:11.752Z,27.21
2018-06-07T13:40:40.977Z,27.30
2018-06-07T13:43:09.764Z,27.36
2018-06-07T13:45:39.160Z,27.48
2018-06-07T13:48:09.506Z,27.53
2018-06-07T13:50:38.615Z,27.57
2018-06-07T13:53:07.486Z,27.60
2018-06-07T13:55:36.909Z,27.62
2018-06-07T13:58:05.727Z,27.64
2018-06-07T14:00:35.031Z,27.63
2018-06-07T14:03:03.853Z,27.57
2018-06-07T14:05:33.329Z,27.61
2018-06-07T14:08:03.360Z,27.69
2018-06-07T14:10:32.934Z,27.58
2018-06-07T14:13:01.737Z,27.57
2018-06-07T14:15:31.214Z,27.62
2018-06-07T14:18:00.010Z,27.77
2018-06-07T14:20:29.815Z,27.81
2018-06-07T14:22:59.587Z,27.99
2018-06-07T14:25:28.466Z,27.98
2018-06-07T14:27:57.812Z,28.00
2018-06-07T14:30:26.606Z,28.11
2018-06-07T14:32:55.374Z,28.10
2018-06-07T14:35:24.220Z,28.05
2018-06-07T14:37:53.007Z,28.07
2018-06-07T14:40:22.055Z,28.13
2018-06-07T14:42:50.862Z,28.21
2018-06-07T14:45:19.709Z,28.24
2018-06-07T14:47:49.605Z,28.27
2018-06-07T14:50:18.734Z,28.33
2018-06-07T14:52:48.190Z,28.20
2018-06-07T14:55:17.352Z,28.14
2018-06-07T14:57:47.351Z,28.07
2018-06-07T15:00:16.413Z,28.16
2018-06-07T15:02:45.199Z,28.21
2018-06-07T15:05:14.617Z,28.03
2018-06-07T15:07:44.146Z,27.80
2018-06-07T15:10:13.753Z,27.69
2018-06-07T15:12:43.288Z,27.60
2018-06-07T15:15:12.700Z,27.62
2018-06-07T15:17:41.585Z,27.55
2018-06-07T15:20:11.471Z,27.60
2018-06-07T15:22:40.916Z,27.64
2018-06-07T15:25:09.737Z,27.80
2018-06-07T15:27:39.415Z,28.04
2018-06-07T15:30:08.247Z,27.92
2018-06-07T15:32:37.333Z,27.98
2018-06-07T15:35:06.422Z,28.34
2018-06-07T15:37:35.444Z,28.64
2018-06-07T15:40:04.998Z,28.88
2018-06-07T15:42:34.023Z,29.20
2018-06-07T15:45:02.854Z,29.12
2018-06-07T15:47:32.975Z,29.49
2018-06-07T15:50:01.787Z,29.90
2018-06-07T15:52:30.719Z,30.26
2018-06-07T15:54:59.544Z,30.52
2018-06-07T15:57:30.341Z,30.91
2018-06-07T15:59:59.139Z,31.12
2018-06-07T16:02:27.959Z,31.13
2018-06-07T16:04:58.150Z,30.66
2018-06-07T16:07:27.967Z,30.98
2018-06-07T16:09:57.601Z,31.31
2018-06-07T16:12:26.407Z,31.73
2018-06-07T16:14:55.846Z,32.06
2018-06-07T16:17:24.650Z,32.07
2018-06-07T16:19:54.033Z,31.97
2018-06-07T16:22:24.037Z,31.92
2018-06-07T16:24:52.790Z,31.95
2018-06-07T16:27:22.339Z,31.93
2018-06-07T16:29:51.168Z,31.98
2018-06-07T16:32:19.938Z,31.95
2018-06-07T16:34:49.658Z,31.82
2018-06-07T16:37:18.878Z,31.80
2018-06-07T16:39:47.913Z,31.70
2018-06-07T16:42:17.991Z,31.61
2018-06-07T16:44:47.752Z,31.70
2018-06-07T16:47:16.974Z,31.76
2018-06-07T16:49:46.029Z,31.60
2018-06-07T16:52:14.815Z,31.64
2018-06-07T16:54:43.593Z,31.74
2018-06-07T16:57:13.131Z,31.70
2018-06-07T16:59:41.898Z,31.74
2018-06-07T17:02:10.679Z,31.98
2018-06-07T17:04:40.083Z,32.02
2018-06-07T17:07:10.079Z,31.90
2018-06-07T17:09:39.792Z,31.65
2018-06-07T17:12:08.629Z,31.38
2018-06-07T17:14:38.047Z,31.31
2018-06-07T17:17:07.706Z,31.35
2018-06-07T17:19:37.378Z,31.27
2018-06-07T17:22:07.004Z,31.04
2018-06-07T17:24:36.501Z,30.95
2018-06-07T17:27:05.936Z,31.02
2018-06-07T17:29:34.901Z,30.91
2018-06-07T17:32:03.951Z,30.84
2018-06-07T17:34:33.747Z,30.94
2018-06-07T17:37:02.521Z,31.00
2018-06-07T17:39:31.307Z,31.17
2018-06-07T17:42:01.541Z,31.27
2018-06-07T17:44:30.307Z,31.18
2018-06-07T17:46:59.060Z,31.09
2018-06-07T17:49:28.498Z,30.97
2018-06-07T17:51:57.381Z,30.72
2018-06-07T17:54:26.166Z,30.64
2018-06-07T17:56:55.924Z,30.41
2018-06-07T17:59:24.782Z,30.57
2018-06-07T18:01:53.548Z,30.43
2018-06-07T18:04:23.116Z,30.39
2018-06-07T18:06:52.667Z,30.35
2018-06-07T18:09:21.946Z,30.46
2018-06-07T18:11:50.678Z,30.44
2018-06-07T18:14:20.519Z,30.44
2018-06-07T18:16:50.020Z,30.50
2018-06-07T18:19:20.336Z,30.39
2018-06-07T18:21:49.215Z,30.23
2018-06-07T18:24:19.125Z,30.05
2018-06-07T18:26:49.095Z,29.97
2018-06-07T18:29:18.567Z,29.91
2018-06-07T18:31:47.749Z,29.82
2018-06-07T18:34:19.346Z,29.76
2018-06-07T18:36:48.549Z,29.49
2018-06-07T18:39:19.090Z,28.79
2018-06-07T18:41:48.295Z,28.16
2018-06-07T18:44:17.671Z,27.53
2018-06-07T18:46:47.376Z,27.03
2018-06-07T18:49:16.924Z,26.61
2018-06-07T18:51:46.237Z,26.24
2018-06-07T18:54:15.162Z,25.93
2018-06-07T18:56:44.745Z,25.65
2018-06-07T18:59:13.706Z,25.42
2018-06-07T19:01:42.537Z,25.19
2018-06-07T19:04:12.234Z,25.03
2018-06-07T19:06:41.672Z,24.81
2018-06-07T19:09:17.052Z,24.65
2018-06-07T19:11:46.143Z,24.48
2018-06-07T19:14:20.945Z,24.36
2018-06-07T19:16:50.433Z,24.19
2018-06-07T19:19:25.390Z,24.03
2018-06-07T19:21:54.272Z,23.87
2018-06-07T19:24:23.628Z,23.77
2018-06-07T19:26:57.651Z,23.66
2018-06-07T19:29:26.473Z,23.56
2018-06-07T19:32:00.376Z,23.45
2018-06-07T19:34:35.895Z,23.35
2018-06-07T19:37:05.970Z,23.24
2018-06-07T19:39:39.956Z,23.12
2018-06-07T19:42:11.005Z,23.02
2018-06-07T19:44:39.871Z,22.91
2018-06-07T19:47:08.795Z,22.82
2018-06-07T19:49:38.274Z,22.70
2018-06-07T19:52:07.262Z,22.58
2018-06-07T19:54:37.044Z,22.49
2018-06-07T19:57:06.982Z,22.39
2018-06-07T19:59:35.986Z,22.27
2018-06-07T20:02:05.551Z,22.19
2018-06-07T20:04:35.557Z,22.07
2018-06-07T20:07:05.217Z,21.98
2018-06-07T20:09:34.775Z,21.85
2018-06-07T20:12:03.626Z,21.77
2018-06-07T20:14:33.373Z,21.65
2018-06-07T20:17:02.950Z,21.57
2018-06-07T20:19:32.794Z,21.44
2018-06-07T20:22:02.494Z,21.33
2018-06-07T20:24:31.361Z,21.23
2018-06-07T20:27:00.184Z,21.14
2018-06-07T20:29:29.076Z,21.05
2018-06-07T20:31:57.899Z,20.94
2018-06-07T20:34:27.943Z,20.85
2018-06-07T20:36:57.758Z,20.77
2018-06-07T20:39:26.640Z,20.71
2018-06-07T20:41:55.524Z,20.64
2018-06-07T20:46:59.587Z,20.51
2018-06-07T20:49:28.448Z,20.43
2018-06-07T20:51:57.243Z,20.35
2018-06-07T20:54:26.098Z,20.28
2018-06-07T20:56:56.044Z,20.22
2018-06-07T20:59:25.656Z,20.17
2018-06-07T21:01:54.551Z,20.11
2018-06-07T21:04:23.935Z,20.04
2018-06-07T21:06:53.575Z,19.99
2018-06-07T21:09:23.026Z,19.94
2018-06-07T21:11:51.818Z,19.90
2018-06-07T21:14:21.253Z,19.84
2018-06-07T21:16:50.952Z,19.79
2018-06-07T21:19:20.774Z,19.75
2018-06-07T21:21:49.631Z,19.70
2018-06-07T21:24:19.598Z,19.66
2018-06-07T21:26:48.819Z,19.59
2018-06-07T21:29:18.098Z,19.54
2018-06-07T21:31:47.383Z,19.46
2018-06-07T21:34:16.677Z,19.39
2018-06-07T21:36:45.801Z,19.34
2018-06-07T21:39:16.030Z,19.26
2018-06-07T21:41:44.889Z,19.20
2018-06-07T21:44:13.766Z,19.15
2018-06-07T21:46:42.818Z,19.10
2018-06-07T21:49:11.709Z,19.03
2018-06-07T21:51:40.658Z,18.98
2018-06-07T21:54:09.723Z,18.92
2018-06-07T21:56:39.399Z,18.88
2018-06-07T21:59:08.179Z,18.82
2018-06-07T22:01:37.543Z,18.79
2018-06-07T22:04:07.234Z,18.74
2018-06-07T22:06:36.931Z,18.68
2018-06-07T22:09:08.478Z,18.65
2018-06-07T22:11:38.230Z,18.62
2018-06-07T22:14:07.834Z,18.57
2018-06-07T22:16:37.812Z,18.53
2018-06-07T22:19:07.448Z,18.49
2018-06-07T22:21:36.689Z,18.47
2018-06-07T22:24:06.516Z,18.43
2018-06-07T22:26:36.607Z,18.39
2018-06-07T22:29:05.483Z,18.35
2018-06-07T22:31:34.483Z,18.32
2018-06-07T22:34:03.367Z,18.29
2018-06-07T22:36:32.924Z,18.27
2018-06-07T22:39:02.588Z,18.25
2018-06-07T22:41:31.426Z,18.21
2018-06-07T22:44:00.302Z,18.17
2018-06-07T22:46:29.483Z,18.10
2018-06-07T22:48:58.629Z,18.04
2018-06-07T22:51:27.668Z,17.99
2018-06-07T22:53:57.456Z,17.94
2018-06-07T22:56:27.504Z,17.92
2018-06-07T22:58:57.222Z,17.87
2018-06-07T23:01:26.262Z,17.84
2018-06-07T23:03:55.780Z,17.80
2018-06-07T23:06:25.514Z,17.79
2018-06-07T23:08:54.909Z,17.76
2018-06-07T23:11:23.954Z,17.73
2018-06-07T23:13:53.784Z,17.72
2018-06-07T23:16:23.573Z,17.70
2018-06-07T23:18:52.959Z,17.67
2018-06-07T23:21:21.865Z,17.65
2018-06-07T23:23:51.316Z,17.62
2018-06-07T23:26:20.145Z,17.58
2018-06-07T23:28:49.347Z,17.53
2018-06-07T23:31:18.705Z,17.51
2018-06-07T23:33:48.959Z,17.49
2018-06-07T23:36:18.420Z,17.45
2018-06-07T23:38:49.202Z,17.43
2018-06-07T23:41:18.780Z,17.40
2018-06-07T23:43:48.597Z,17.36
2018-06-07T23:46:18.277Z,17.34
2018-06-07T23:48:48.226Z,17.31
2018-06-07T23:51:18.894Z,17.29
2018-06-07T23:53:48.834Z,17.23
2018-06-07T23:56:18.953Z,17.17
2018-06-07T23:58:48.649Z,17.12
